WetterOnline ( https://www.wetteronline.ch )

Wetter aktuell Hamburg

Aktuelles Wetter: Hamburg/Fuhlsbüttel (15m)

6-stündlich | Neueste Meldungen
Ortszeit Temperatur Wetter
Do, 25.04. 2:00 16.5° C wolkig
Mi, 24.04. 20:00 22.1° C leicht bewölkt
Mi, 24.04. 14:00 20.6° C leicht bewölkt
Mi, 24.04. 8:00 12.3° C leichter Regen
Mi, 24.04. 2:00 13.3° C fast wolkenlos
Di, 23.04. 20:00 18.1° C bewölkt
Di, 23.04. 14:00 19.0° C wolkenlos
Di, 23.04. 8:00 12.0° C fast wolkenlos
Ortszeit Temperatur Wetter
Do, 25.04. 7:30 11.6° C -
Do, 25.04. 7:20 12° C leicht bewölkt
Do, 25.04. 7:10 11.4° C -
Do, 25.04. 7:00 10.0° C fast wolkenlos
Do, 25.04. 6:50 10.0° C -
Do, 25.04. 6:40 9.3° C -
Do, 25.04. 6:30 9.9° C -
Do, 25.04. 6:00 10.1° C fast wolkenlos
Do, 25.04. 5:30 10.9° C -
Do, 25.04. 5:00 12.0° C bedeckt
Do, 25.04. 4:30 12.1° C -
Do, 25.04. 4:00 12.3° C wolkig
Ortszeit Relative Feuchte Sichtweite
Do, 25.04. 2:00 63% 20 km
Mi, 24.04. 20:00 43% 30 km
Mi, 24.04. 14:00 50% 30 km
Mi, 24.04. 8:00 73% 25 km
Mi, 24.04. 2:00 65% 30 km
Di, 23.04. 20:00 40% 25 km
Di, 23.04. 14:00 35% 30 km
Di, 23.04. 8:00 56% 35 km
Ortszeit Relative Feuchte Sichtweite
Do, 25.04. 7:30 84% 14 km
Do, 25.04. 7:20 82% >10 km
Do, 25.04. 7:10 85% -
Do, 25.04. 7:00 92% 20 km
Do, 25.04. 6:50 92% -
Do, 25.04. 6:40 95% -
Do, 25.04. 6:30 95% 3.9 km
Do, 25.04. 6:00 92% 20 km
Do, 25.04. 5:30 90% 15 km
Do, 25.04. 5:00 87% 25 km
Do, 25.04. 4:30 87% 45 km
Do, 25.04. 4:00 89% 40 km
Ortszeit Niederschlagsmenge Niederschlagsart
Do, 25.04. 2:00 0.0 l/m2 in 6 Std. -
Mi, 24.04. 20:00 0.1 l/m2 in 12 Std. -
Mi, 24.04. 14:00 0.1 l/m2 in 6 Std. Regen
Mi, 24.04. 8:00 0.1 l/m2 in 12 Std. Regen
Mi, 24.04. 2:00 0.0 l/m2 in 6 Std. -
Di, 23.04. 20:00 0.0 l/m2 in 12 Std. -
Di, 23.04. 14:00 0.0 l/m2 in 6 Std. -
Di, 23.04. 8:00 0.0 l/m2 in 12 Std. -
Ortszeit Niederschlagsmenge Niederschlagsart
Do, 25.04. 7:30 0.0 l/m2 in 1 Std. -
Do, 25.04. 7:20 keine Meldung -
Do, 25.04. 7:10 keine Meldung -
Do, 25.04. 7:00 0.1 l/m2 in 1 Std. -
Do, 25.04. 6:50 keine Meldung -
Do, 25.04. 6:40 keine Meldung -
Do, 25.04. 6:30 0.0 l/m2 in 1 Std. -
Do, 25.04. 6:00 0.0 l/m2 in 1 Std. -
Do, 25.04. 5:30 0.0 l/m2 in 1 Std. -
Do, 25.04. 5:00 0.0 l/m2 in 1 Std. Schauer
Do, 25.04. 4:30 0.0 l/m2 in 1 Std. -
Do, 25.04. 4:00 1.2 l/m2 in 1 Std. Schauer
Ortszeit Stärke Spitze Richtung
km/h Bft. km/h Grad Sektor
Do, 25.04. 2:00 32 5 47 210° SW
Mi, 24.04. 20:00 22 4 43 120° SO
Mi, 24.04. 14:00 24 4 44 140° SO
Mi, 24.04. 8:00 24 4 48 120° SO
Mi, 24.04. 2:00 22 4 54 110° O
Di, 23.04. 20:00 33 5 69 110° O
Di, 23.04. 14:00 36 5 58 80° O
Di, 23.04. 8:00 31 5 54 90° O
Ortszeit Stärke Spitze Richtung
km/h Bft. km/h Grad Sektor
Do, 25.04. 7:30 13 3 19 160° S
Do, 25.04. 7:20 13 3 - 160° S
Do, 25.04. 7:10 9 2 - 160° S
Do, 25.04. 7:00 7 2 11 170° S
Do, 25.04. 6:50 7 2 - 170° S
Do, 25.04. 6:40 7 2 - 190° S
Do, 25.04. 6:30 4 1 7 210° SW
Do, 25.04. 6:00 4 1 22 220° SW
Do, 25.04. 5:30 9 2 22 230° SW
Do, 25.04. 5:00 18 3 43 230° SW
Do, 25.04. 4:30 31 5 44 220° SW
Do, 25.04. 4:00 13 3 19 210° SW
Ortszeit Untergrenze Bedeckung Gattung
total tief tief mittel hoch
Do, 25.04. 2:00 1440 m 8/8 1/8 Sc Ac -
Mi, 24.04. 20:00 3600 m 2/8 1/8 - Ac Ci
Mi, 24.04. 14:00 3000 m 2/8 1/8 - Ac Ci
Mi, 24.04. 8:00 2400 m 7/8 7/8 - As -
Mi, 24.04. 2:00 1800 m 1/8 1/8 Sc - -
Di, 23.04. 20:00 2100 m 7/8 7/8 Sc - -
Di, 23.04. 14:00 - 0/8 0/8 - - -
Di, 23.04. 8:00 9000 m 1/8 0/8 - - Ci
Ortszeit Bedeckungsgrad in Achtel und Wolkenuntergrenze
Do, 25.04. 7:30 -
Do, 25.04. 7:20 1-2(360m)
Do, 25.04. 7:10 -
Do, 25.04. 7:00 1(3300m)
Do, 25.04. 6:50 -
Do, 25.04. 6:40 -
Do, 25.04. 6:30 -
Do, 25.04. 6:00 1(690m)
Do, 25.04. 5:30 -
Do, 25.04. 5:00 7(300m)
Do, 25.04. 4:30 -
Do, 25.04. 4:00 3(1050m) 5(3900m)
Ortszeit Luftdruck NN (hPa) Tendenz (hPa in 3 Std.)
Do, 25.04. 2:00 1005 + 1,4
Mi, 24.04. 20:00 1003 + 0,1
Mi, 24.04. 14:00 1004 - 0,2
Mi, 24.04. 8:00 1004 + 0,5
Mi, 24.04. 2:00 1004 - 0,7
Di, 23.04. 20:00 1005 - 0,4
Di, 23.04. 14:00 1007 - 2,4
Di, 23.04. 8:00 1011 - 0,9
Ortszeit Luftdruck NN (hPa) Tendenz (hPa in 3 Std.)
Do, 25.04. 7:30 1009 + 1,9
Do, 25.04. 7:20 1009 keine Meldung
Do, 25.04. 7:10 1009 keine Meldung
Do, 25.04. 7:00 1009 + 1,9
Do, 25.04. 6:50 1009 keine Meldung
Do, 25.04. 6:40 1008 keine Meldung
Do, 25.04. 6:30 1008 + 1,9
Do, 25.04. 6:00 1008 + 1,5
Do, 25.04. 5:30 1007 + 1,0
Do, 25.04. 5:00 1007 + 2,0
Do, 25.04. 4:30 1007 + 2,7
Do, 25.04. 4:00 1007 + 3,5
Ortszeit Schneehöhe (cm)
Do, 25.04. 2:00 0
Mi, 24.04. 20:00 0
Mi, 24.04. 14:00 0
Mi, 24.04. 8:00 0
Mi, 24.04. 2:00 0
Di, 23.04. 20:00 0
Di, 23.04. 14:00 0
Di, 23.04. 8:00 0
Ortszeit Schneehöhe (cm)
Do, 25.04. 7:30 -
Do, 25.04. 7:20 -
Do, 25.04. 7:10 -
Do, 25.04. 7:00 -
Do, 25.04. 6:50 -
Do, 25.04. 6:40 -
Do, 25.04. 6:30 -
Do, 25.04. 6:00 -
Do, 25.04. 5:30 -
Do, 25.04. 5:00 -
Do, 25.04. 4:30 -
Do, 25.04. 4:00 -
Link zu dieser Seite / Seite empfehlen

Das Wetter in ...